Time;durP1;ratioP1;P1;durP2;ratioP2;P2;SDS_P1;SDS_P2;PMS_P1;PMS_P2;Temp;Humidity;BMP_temperature;BMP_pressure;BME280_temperature;BME280_humidity;BME280_pressure;Samples;Min_cycle;Max_cycle;Signal;HPM_P1;HPM_P2
2021/01/03 00:00:15;;;;;;;30.53;14.33;;;3.10;99.90;;;;;;5075526;28;20079;-67
2021/01/03 00:02:41;;;;;;;31.98;13.65;;;3.00;99.90;;;;;;5090677;28;20055;-66
2021/01/03 00:05:12;;;;;;;30.17;13.80;;;2.90;99.90;;;;;;5085093;28;20102;-66
2021/01/03 00:07:42;;;;;;;29.10;12.77;;;3.20;99.90;;;;;;5074586;28;20079;-65
2021/01/03 00:10:10;;;;;;;27.97;13.47;;;3.20;99.90;;;;;;5088342;28;20059;-66
2021/01/03 00:12:37;;;;;;;29.77;13.50;;;3.30;99.90;;;;;;5081940;28;20056;-66
2021/01/03 00:15:06;;;;;;;30.10;12.47;;;3.30;99.90;;;;;;5080701;28;20043;-66
2021/01/03 00:17:34;;;;;;;31.37;14.20;;;3.30;99.90;;;;;;5091864;28;20044;-65
2021/01/03 00:20:01;;;;;;;28.37;13.77;;;3.20;99.90;;;;;;5076262;28;20052;-65
2021/01/03 00:22:27;;;;;;;29.97;13.60;;;3.20;99.90;;;;;;5088152;28;20040;-66
2021/01/03 00:24:54;;;;;;;28.83;13.37;;;3.10;99.90;;;;;;5090025;28;20499;-65
2021/01/03 00:27:21;;;;;;;30.67;12.97;;;3.10;99.90;;;;;;5087847;28;20048;-66
2021/01/03 00:29:48;;;;;;;30.63;14.07;;;3.00;99.90;;;;;;5087063;28;20403;-66
2021/01/03 00:32:17;;;;;;;33.07;13.57;;;2.90;99.90;;;;;;5086098;28;20050;-66
2021/01/03 00:34:45;;;;;;;26.90;12.57;;;2.90;99.90;;;;;;5087533;28;20058;-66
2021/01/03 00:37:12;;;;;;;26.33;12.20;;;3.10;99.90;;;;;;5088865;28;20048;-67
2021/01/03 00:39:39;;;;;;;27.23;12.43;;;3.00;99.90;;;;;;5089435;28;20485;-66
2021/01/03 00:42:06;;;;;;;29.10;12.83;;;3.00;99.90;;;;;;5088868;28;20521;-66
2021/01/03 00:44:33;;;;;;;26.67;12.43;;;3.10;99.90;;;;;;5088327;28;20056;-66
2021/01/03 00:47:00;;;;;;;23.23;11.63;;;3.20;99.90;;;;;;5089468;28;20056;-65
2021/01/03 00:49:27;;;;;;;25.07;10.77;;;3.10;99.90;;;;;;5088342;28;20058;-66
2021/01/03 00:51:55;;;;;;;24.77;11.97;;;3.20;99.90;;;;;;5086958;28;20051;-66
2021/01/03 00:54:22;;;;;;;24.87;11.47;;;3.20;99.90;;;;;;5081861;28;20047;-66
2021/01/03 00:56:48;;;;;;;25.23;12.30;;;3.20;99.90;;;;;;5083390;28;20397;-66
2021/01/03 00:59:15;;;;;;;23.43;11.53;;;3.10;99.90;;;;;;5087462;28;20062;-66
2021/01/03 01:01:42;;;;;;;24.03;11.33;;;3.20;99.90;;;;;;5071058;28;20053;-66
2021/01/03 01:04:08;;;;;;;25.27;12.83;;;2.90;99.90;;;;;;5085048;28;20059;-66
2021/01/03 01:06:35;;;;;;;25.37;12.67;;;3.10;99.90;;;;;;5076277;28;20063;-67
2021/01/03 01:09:03;;;;;;;25.80;12.00;;;3.10;99.90;;;;;;5077571;28;20563;-66
2021/01/03 01:11:30;;;;;;;27.10;11.83;;;3.10;99.90;;;;;;5084266;28;20048;-66
2021/01/03 01:13:57;;;;;;;25.17;12.93;;;3.10;99.90;;;;;;5071856;28;20055;-68
2021/01/03 01:16:24;;;;;;;25.57;11.73;;;3.10;99.90;;;;;;5085764;28;20052;-66
2021/01/03 01:18:51;;;;;;;26.50;13.13;;;3.20;99.90;;;;;;5087445;28;20048;-66
2021/01/03 01:21:18;;;;;;;24.67;11.70;;;3.10;99.90;;;;;;5086000;28;20056;-66
2021/01/03 01:23:45;;;;;;;33.47;13.60;;;3.10;99.90;;;;;;5084490;28;20052;-67
2021/01/03 01:26:14;;;;;;;29.73;13.47;;;3.00;99.90;;;;;;5088762;28;20059;-66
2021/01/03 01:28:40;;;;;;;27.97;13.07;;;3.10;99.90;;;;;;5086371;28;20151;-67
2021/01/03 01:31:07;;;;;;;29.23;12.53;;;3.30;99.90;;;;;;5083816;28;20551;-66
2021/01/03 01:33:37;;;;;;;30.00;12.63;;;3.20;99.90;;;;;;5087487;28;20045;-66
2021/01/03 01:36:05;;;;;;;28.67;13.67;;;3.10;99.90;;;;;;5085462;28;20055;-66
2021/01/03 01:38:32;;;;;;;27.67;13.13;;;3.10;99.90;;;;;;5085041;28;20407;-67
2021/01/03 01:40:59;;;;;;;27.57;12.43;;;3.10;99.90;;;;;;5087261;28;20102;-66
2021/01/03 01:43:27;;;;;;;26.37;12.40;;;3.00;99.90;;;;;;5088818;28;20046;-66
2021/01/03 01:45:56;;;;;;;26.73;12.00;;;3.00;99.90;;;;;;5088786;28;20542;-66
2021/01/03 01:48:28;;;;;;;25.23;12.00;;;3.10;99.90;;;;;;5090964;28;20438;-66
2021/01/03 01:50:58;;;;;;;27.47;12.67;;;3.10;99.90;;;;;;5093690;28;20076;-66
2021/01/03 01:53:30;;;;;;;28.43;12.77;;;2.90;99.90;;;;;;5091042;28;20773;-66
2021/01/03 01:56:07;;;;;;;25.97;12.00;;;2.90;99.90;;;;;;5094025;28;20105;-66
2021/01/03 01:58:45;;;;;;;25.60;12.07;;;3.10;99.90;;;;;;5181102;22;20957;-72
2021/01/03 02:01:16;;;;;;;26.30;11.53;;;3.20;99.90;;;;;;5075781;28;20056;-71
2021/01/03 02:03:50;;;;;;;31.47;13.57;;;3.10;99.90;;;;;;5068213;28;20059;-71
2021/01/03 02:06:22;;;;;;;28.10;13.27;;;3.30;99.90;;;;;;5072369;28;20049;-75
2021/01/03 02:08:53;;;;;;;26.40;13.23;;;3.20;99.90;;;;;;5071965;28;20051;-73
2021/01/03 02:11:25;;;;;;;31.17;13.23;;;3.10;99.90;;;;;;5072091;28;20078;-73
2021/01/03 02:13:55;;;;;;;27.13;12.47;;;3.10;99.90;;;;;;5071949;28;20060;-73
2021/01/03 02:16:24;;;;;;;29.07;12.70;;;3.10;99.90;;;;;;5072479;28;20119;-73
2021/01/03 02:18:52;;;;;;;28.40;12.63;;;3.10;99.90;;;;;;5072417;28;20060;-72
2021/01/03 02:21:25;;;;;;;28.97;13.77;;;3.00;99.90;;;;;;5071077;28;20052;-72
2021/01/03 02:23:59;;;;;;;26.10;13.83;;;3.00;99.90;;;;;;5072159;28;20428;-74
2021/01/03 02:26:30;;;;;;;30.90;14.10;;;3.00;99.90;;;;;;5075570;28;20117;-73
2021/01/03 02:28:58;;;;;;;32.43;13.87;;;2.90;99.90;;;;;;5092477;28;20055;-73
2021/01/03 02:31:30;;;;;;;28.90;13.50;;;3.00;99.90;;;;;;5090588;28;20101;-73
2021/01/03 02:33:57;;;;;;;31.80;13.73;;;2.90;99.90;;;;;;5092240;28;20075;-73
2021/01/03 02:36:27;;;;;;;29.23;14.13;;;2.90;99.90;;;;;;5080020;28;20055;-74
2021/01/03 02:39:16;;;;;;;30.77;15.00;;;2.90;99.90;;;;;;5070704;28;20126;-73
2021/01/03 02:41:44;;;;;;;32.97;15.27;;;2.90;99.90;;;;;;5068235;28;20523;-73
2021/01/03 02:44:10;;;;;;;34.07;15.77;;;3.00;99.90;;;;;;5071163;28;20504;-73
2021/01/03 02:46:46;;;;;;;35.07;15.63;;;3.10;99.90;;;;;;5071861;28;20049;-73
2021/01/03 02:49:14;;;;;;;32.60;16.23;;;3.10;99.90;;;;;;5071214;28;20072;-73
2021/01/03 02:51:41;;;;;;;36.30;16.57;;;3.10;99.90;;;;;;5071873;28;20044;-73
2021/01/03 02:54:09;;;;;;;34.43;16.67;;;2.90;99.90;;;;;;5070707;28;20450;-73
2021/01/03 02:56:36;;;;;;;35.87;15.77;;;2.80;99.90;;;;;;5071748;28;20697;-73
2021/01/03 02:59:04;;;;;;;37.33;16.77;;;2.80;99.90;;;;;;5070794;28;20059;-73
2021/01/03 03:01:31;;;;;;;37.67;16.33;;;2.70;99.90;;;;;;5071357;28;20106;-73
2021/01/03 03:04:01;;;;;;;41.60;18.03;;;2.70;99.90;;;;;;5071156;28;20057;-73
2021/01/03 03:06:27;;;;;;;40.70;18.20;;;2.60;99.90;;;;;;5070833;28;20451;-73
2021/01/03 03:08:54;;;;;;;40.87;18.30;;;2.60;99.90;;;;;;5071858;28;20070;-74
2021/01/03 03:11:20;;;;;;;39.17;17.60;;;2.60;99.90;;;;;;5069945;28;20056;-73
2021/01/03 03:13:47;;;;;;;41.17;18.37;;;2.60;99.90;;;;;;5071383;28;20139;-74
2021/01/03 03:16:17;;;;;;;44.23;18.63;;;2.50;99.90;;;;;;5070784;28;20048;-74
2021/01/03 03:18:44;;;;;;;39.40;17.80;;;2.50;99.90;;;;;;5071523;28;20052;-73
2021/01/03 03:21:18;;;;;;;43.67;18.13;;;2.50;99.90;;;;;;5070675;28;20079;-74
2021/01/03 03:23:51;;;;;;;41.40;18.37;;;2.40;99.90;;;;;;5070319;28;20048;-74
2021/01/03 03:26:18;;;;;;;45.80;19.13;;;2.30;99.90;;;;;;5071315;28;20048;-73
2021/01/03 03:28:44;;;;;;;44.20;19.07;;;2.30;99.90;;;;;;5063253;28;20057;-73
2021/01/03 03:31:11;;;;;;;47.50;19.97;;;2.20;99.90;;;;;;5070914;28;20057;-74
2021/01/03 03:33:38;;;;;;;49.23;20.07;;;2.20;99.90;;;;;;5070034;28;20048;-74
2021/01/03 03:36:06;;;;;;;51.37;21.73;;;2.10;99.90;;;;;;5071210;28;20155;-74
2021/01/03 03:38:32;;;;;;;48.07;21.17;;;2.10;99.90;;;;;;5071208;28;20117;-73
2021/01/03 03:40:59;;;;;;;52.50;20.87;;;2.00;99.90;;;;;;5069944;28;20105;-73
2021/01/03 03:43:26;;;;;;;49.97;20.97;;;2.00;99.90;;;;;;5071025;28;20071;-73
2021/01/03 03:45:52;;;;;;;53.73;20.83;;;1.90;99.90;;;;;;5070218;28;20051;-73
2021/01/03 03:48:19;;;;;;;56.07;22.17;;;1.90;99.90;;;;;;5070907;28;20053;-73
2021/01/03 03:50:47;;;;;;;51.50;21.67;;;2.00;99.90;;;;;;5069632;28;20055;-74
2021/01/03 03:53:13;;;;;;;58.07;21.20;;;1.90;99.90;;;;;;5070834;28;20071;-73
2021/01/03 03:55:43;;;;;;;52.20;20.73;;;1.90;99.90;;;;;;5070275;28;20056;-74
2021/01/03 03:58:09;;;;;;;49.80;19.43;;;1.90;99.90;;;;;;5069916;28;20075;-75
2021/01/03 04:00:36;;;;;;;55.27;20.30;;;1.90;99.90;;;;;;5066533;28;20048;-74
2021/01/03 04:03:04;;;;;;;47.20;19.37;;;1.90;99.90;;;;;;5067337;28;20484;-73
2021/01/03 04:05:30;;;;;;;49.83;19.10;;;1.90;99.90;;;;;;5070450;28;20051;-73
2021/01/03 04:07:58;;;;;;;53.23;19.60;;;1.90;99.90;;;;;;5069060;28;20048;-73
2021/01/03 04:10:25;;;;;;;49.97;20.10;;;1.90;99.90;;;;;;5069330;28;20059;-73
2021/01/03 04:12:51;;;;;;;49.40;19.60;;;1.80;99.90;;;;;;5070557;28;20056;-73
2021/01/03 04:15:19;;;;;;;50.90;19.43;;;1.90;99.90;;;;;;5069371;28;20052;-74
2021/01/03 04:17:46;;;;;;;48.53;19.10;;;1.80;99.90;;;;;;5070046;28;20075;-73
2021/01/03 04:20:16;;;;;;;49.10;19.40;;;1.70;99.90;;;;;;5068950;28;20048;-73
2021/01/03 04:22:43;;;;;;;46.53;18.20;;;1.70;99.90;;;;;;5070292;28;20060;-73
2021/01/03 04:25:13;;;;;;;52.07;19.30;;;1.80;99.90;;;;;;5069523;28;20048;-73
2021/01/03 04:27:39;;;;;;;50.60;19.13;;;1.80;99.90;;;;;;5070484;28;20052;-73
2021/01/03 04:30:09;;;;;;;53.57;18.70;;;1.90;99.90;;;;;;5070367;28;20063;-74
2021/01/03 04:32:36;;;;;;;48.53;19.50;;;1.80;99.90;;;;;;5070105;28;20055;-73
2021/01/03 04:35:03;;;;;;;45.57;19.53;;;1.70;99.90;;;;;;5069737;28;20102;-75
2021/01/03 04:37:29;;;;;;;47.23;18.23;;;1.80;99.90;;;;;;5069154;28;20056;-73
2021/01/03 04:39:56;;;;;;;52.30;20.50;;;1.70;99.90;;;;;;5070348;28;20113;-73
2021/01/03 04:42:28;;;;;;;47.30;18.17;;;1.70;99.90;;;;;;5068142;28;20044;-74
2021/01/03 04:44:59;;;;;;;49.27;18.83;;;1.70;99.90;;;;;;5069843;28;20052;-73
2021/01/03 04:47:29;;;;;;;48.50;18.27;;;1.70;99.90;;;;;;5069800;28;20060;-73
2021/01/03 04:50:05;;;;;;;50.67;19.30;;;1.80;99.90;;;;;;5069444;28;20045;-71
2021/01/03 04:53:11;;;;;;;43.10;17.93;;;1.80;99.90;;;;;;5069594;28;20097;-71
2021/01/03 04:55:45;;;;;;;49.73;19.13;;;1.70;99.90;;;;;;5059480;28;20412;-71
2021/01/03 04:58:30;;;;;;;42.37;18.13;;;1.90;99.90;;;;;;5069950;28;20409;-71
2021/01/03 05:01:12;;;;;;;46.80;19.03;;;1.70;99.90;;;;;;5068624;28;20742;-70
2021/01/03 05:04:15;;;;;;;44.47;17.30;;;1.70;99.90;;;;;;5069854;28;20102;-71
2021/01/03 05:06:49;;;;;;;47.70;18.47;;;1.70;99.90;;;;;;5069164;28;20467;-71
2021/01/03 05:09:16;;;;;;;44.97;18.57;;;1.70;99.90;;;;;;5069687;28;20052;-70
2021/01/03 05:11:59;;;;;;;42.43;17.73;;;1.70;99.90;;;;;;5068288;28;20056;-71
2021/01/03 05:14:35;;;;;;;42.17;18.20;;;1.80;99.90;;;;;;5069539;28;20048;-70
2021/01/03 05:17:02;;;;;;;41.70;16.93;;;1.80;99.90;;;;;;5068890;28;20041;-71
2021/01/03 05:19:28;;;;;;;43.40;17.97;;;1.70;99.90;;;;;;5069710;28;20050;-71
2021/01/03 05:21:57;;;;;;;44.93;18.53;;;1.80;99.90;;;;;;5068929;28;20794;-71
2021/01/03 05:24:25;;;;;;;45.53;18.10;;;1.70;99.90;;;;;;5068881;28;20059;-71
2021/01/03 05:26:52;;;;;;;41.60;16.67;;;1.70;99.90;;;;;;5069441;28;20489;-73
2021/01/03 05:29:25;;;;;;;40.37;17.70;;;1.70;99.90;;;;;;5069054;28;20056;-71
2021/01/03 05:31:58;;;;;;;43.60;18.00;;;1.70;99.90;;;;;;5069193;28;20052;-71
2021/01/03 05:34:32;;;;;;;40.57;16.57;;;1.70;99.90;;;;;;5068634;28;20062;-73
2021/01/03 05:37:05;;;;;;;37.80;17.23;;;1.70;99.90;;;;;;5066674;28;20049;-71
2021/01/03 05:39:33;;;;;;;41.77;17.40;;;1.90;99.90;;;;;;5069105;28;20048;-72
2021/01/03 05:42:35;;;;;;;42.00;18.20;;;1.80;99.90;;;;;;5067656;28;20795;-71
2021/01/03 05:45:05;;;;;;;41.80;15.90;;;1.80;99.90;;;;;;5026478;28;20049;-71
2021/01/03 05:47:36;;;;;;;37.23;15.77;;;1.80;99.90;;;;;;5061008;28;20056;-72
2021/01/03 05:50:17;;;;;;;37.87;15.07;;;1.80;99.90;;;;;;5069403;28;20048;-71
2021/01/03 05:52:52;;;;;;;37.37;16.73;;;1.80;99.90;;;;;;5071473;28;20397;-71
2021/01/03 05:55:23;;;;;;;37.43;16.33;;;1.80;99.90;;;;;;5069963;28;20048;-72
2021/01/03 05:58:02;;;;;;;35.50;15.53;;;1.80;99.90;;;;;;5068358;28;20060;-71
2021/01/03 06:00:30;;;;;;;36.83;14.73;;;1.90;99.90;;;;;;5068669;28;20071;-71
2021/01/03 06:03:13;;;;;;;34.13;15.80;;;1.80;99.90;;;;;;5069228;28;20049;-71
2021/01/03 06:05:44;;;;;;;34.33;15.67;;;1.80;99.90;;;;;;5068507;28;20052;-71
2021/01/03 06:08:16;;;;;;;37.40;17.17;;;1.80;99.90;;;;;;5069093;28;20053;-71
2021/01/03 06:10:43;;;;;;;35.63;16.17;;;1.80;99.90;;;;;;5067671;28;20091;-71
2021/01/03 06:13:13;;;;;;;33.03;14.50;;;1.80;99.90;;;;;;5069048;28;20048;-71
2021/01/03 06:15:44;;;;;;;37.30;16.53;;;1.90;99.90;;;;;;5067960;28;20041;-71
2021/01/03 06:18:17;;;;;;;33.07;16.10;;;1.80;99.90;;;;;;5069124;28;20048;-73
2021/01/03 06:20:44;;;;;;;33.13;14.90;;;1.90;99.90;;;;;;5068754;28;20056;-71
2021/01/03 06:23:16;;;;;;;32.33;15.03;;;1.80;99.90;;;;;;5067397;28;20056;-71
2021/01/03 06:25:52;;;;;;;32.37;14.63;;;1.90;99.90;;;;;;5069190;28;20048;-71
2021/01/03 06:28:41;;;;;;;32.37;15.03;;;1.80;99.90;;;;;;5067932;28;20053;-71
2021/01/03 06:31:39;;;;;;;33.00;14.77;;;1.90;99.90;;;;;;5068434;28;20053;-71
2021/01/03 06:34:14;;;;;;;35.17;14.20;;;1.90;99.90;;;;;;5035812;28;20420;-71
2021/01/03 06:36:48;;;;;;;30.23;13.73;;;1.90;99.90;;;;;;5072592;28;20727;-70
2021/01/03 06:39:29;;;;;;;29.80;13.17;;;2.00;99.90;;;;;;5074030;28;20131;-71
2021/01/03 06:41:59;;;;;;;29.80;13.37;;;1.90;99.90;;;;;;5081195;28;20055;-71
2021/01/03 06:44:47;;;;;;;26.50;13.57;;;1.90;99.90;;;;;;5072312;28;20082;-71
2021/01/03 06:47:52;;;;;;;26.73;12.87;;;1.90;99.90;;;;;;5071514;28;20052;-71
2021/01/03 06:50:55;;;;;;;27.90;12.47;;;1.80;99.90;;;;;;5071808;28;20466;-71
2021/01/03 06:54:02;;;;;;;28.27;13.40;;;1.80;99.90;;;;;;5053689;28;20080;-71
2021/01/03 06:56:56;;;;;;;26.73;12.00;;;1.80;99.90;;;;;;5075807;28;20052;-71
2021/01/03 06:59:38;;;;;;;26.10;12.83;;;1.80;99.90;;;;;;5075664;28;20056;-71
2021/01/03 07:02:05;;;;;;;25.57;12.17;;;1.80;99.90;;;;;;5073821;28;20052;-71
2021/01/03 07:04:34;;;;;;;29.57;13.20;;;1.90;99.90;;;;;;5072663;28;20052;-73
2021/01/03 07:07:03;;;;;;;24.90;12.13;;;1.80;99.90;;;;;;5072719;28;20053;-71
2021/01/03 07:09:31;;;;;;;26.63;13.13;;;1.80;99.90;;;;;;5071679;28;20082;-71
2021/01/03 07:11:59;;;;;;;25.57;13.67;;;1.80;99.90;;;;;;5071555;28;20116;-71
2021/01/03 07:14:52;;;;;;;26.27;11.80;;;1.70;99.90;;;;;;5070534;28;20057;-73
2021/01/03 07:17:26;;;;;;;25.43;12.80;;;1.80;99.90;;;;;;5071536;28;20489;-72
2021/01/03 07:19:56;;;;;;;24.43;12.37;;;1.80;99.90;;;;;;5070754;28;20052;-72
2021/01/03 07:22:29;;;;;;;24.13;11.83;;;1.80;99.90;;;;;;5070659;28;20531;-72
2021/01/03 07:25:19;;;;;;;27.00;12.30;;;1.90;99.90;;;;;;5071742;28;20052;-72
2021/01/03 07:28:04;;;;;;;23.87;11.17;;;1.90;99.90;;;;;;5070571;28;20040;-71
2021/01/03 07:30:43;;;;;;;24.20;12.10;;;1.80;99.90;;;;;;5071248;28;20052;-72
2021/01/03 07:33:23;;;;;;;22.77;11.47;;;1.80;99.90;;;;;;5070200;28;20164;-72
2021/01/03 07:35:49;;;;;;;25.27;11.73;;;1.80;99.90;;;;;;5071390;28;20049;-72
2021/01/03 07:38:37;;;;;;;24.77;11.87;;;1.70;99.90;;;;;;5070463;28;20420;-73
2021/01/03 07:41:06;;;;;;;24.15;12.40;;;1.80;99.90;;;;;;5070985;28;20117;-73
2021/01/03 07:43:59;;;;;;;24.33;11.73;;;1.80;99.90;;;;;;5069465;28;20045;-71
2021/01/03 07:46:53;;;;;;;26.37;11.17;;;1.90;99.90;;;;;;5057240;28;20056;-70
2021/01/03 07:49:32;;;;;;;21.93;10.53;;;2.00;99.90;;;;;;5070502;28;20055;-72
2021/01/03 07:52:01;;;;;;;22.07;11.77;;;1.90;99.90;;;;;;5070574;28;20062;-72
2021/01/03 07:54:28;;;;;;;22.97;11.33;;;1.90;99.90;;;;;;5070594;28;20055;-72
2021/01/03 07:56:56;;;;;;;22.77;11.43;;;1.90;99.90;;;;;;5071337;28;20045;-73
2021/01/03 07:59:23;;;;;;;22.40;11.83;;;1.90;99.90;;;;;;5070740;28;20458;-71
2021/01/03 08:01:53;;;;;;;24.97;11.73;;;1.90;99.90;;;;;;5069462;28;20059;-70
2021/01/03 08:04:24;;;;;;;23.93;11.53;;;1.90;99.90;;;;;;5071554;28;20044;-70
2021/01/03 08:06:51;;;;;;;23.20;10.73;;;1.90;99.90;;;;;;5070680;28;20056;-70
2021/01/03 08:09:26;;;;;;;20.50;10.87;;;1.90;99.90;;;;;;5070659;28;20063;-72
2021/01/03 08:12:02;;;;;;;21.60;11.23;;;1.90;99.90;;;;;;5070878;28;20045;-72
2021/01/03 08:14:33;;;;;;;19.90;10.27;;;1.80;99.90;;;;;;5070369;28;20059;-73
2021/01/03 08:17:02;;;;;;;19.07;10.30;;;1.80;99.90;;;;;;5071122;28;20058;-70
2021/01/03 08:19:30;;;;;;;21.47;10.37;;;1.90;99.90;;;;;;5070361;28;20056;-72
2021/01/03 08:21:59;;;;;;;18.67;9.57;;;1.90;99.90;;;;;;5070334;28;20127;-71
2021/01/03 08:24:27;;;;;;;21.87;10.77;;;2.00;99.90;;;;;;5070122;28;20661;-73
2021/01/03 08:26:58;;;;;;;16.97;9.40;;;2.00;99.90;;;;;;5070410;28;20084;-70
2021/01/03 08:29:36;;;;;;;20.77;10.63;;;2.00;99.90;;;;;;5071240;28;20052;-70
2021/01/03 08:32:08;;;;;;;19.10;10.10;;;2.00;99.90;;;;;;5069385;28;20385;-70
2021/01/03 08:34:38;;;;;;;21.43;10.40;;;2.00;99.90;;;;;;5070150;28;20051;-70
2021/01/03 08:37:14;;;;;;;18.77;9.80;;;2.10;99.90;;;;;;5078232;28;20109;-70
2021/01/03 08:39:41;;;;;;;19.15;10.18;;;2.00;99.90;;;;;;5071175;28;20052;-70
2021/01/03 08:42:17;;;;;;;20.27;10.33;;;2.00;99.90;;;;;;5068672;28;20555;-74
2021/01/03 08:44:50;;;;;;;20.05;10.23;;;2.00;99.90;;;;;;5070153;28;20063;-72
2021/01/03 08:47:21;;;;;;;17.53;9.30;;;2.00;99.90;;;;;;5069215;28;20060;-73
2021/01/03 08:49:48;;;;;;;20.23;10.33;;;2.00;99.90;;;;;;5070579;28;20056;-72
2021/01/03 08:52:20;;;;;;;19.97;10.50;;;2.10;99.90;;;;;;5070727;28;20071;-72
2021/01/03 08:54:51;;;;;;;17.97;9.87;;;2.10;99.90;;;;;;5068477;28;20048;-72
2021/01/03 08:57:20;;;;;;;20.17;9.37;;;2.10;99.90;;;;;;5073375;28;20044;-72
2021/01/03 08:59:51;;;;;;;19.77;9.63;;;2.20;99.90;;;;;;5068198;28;20056;-72
2021/01/03 09:02:24;;;;;;;17.83;9.57;;;2.20;99.90;;;;;;5069075;28;20045;-72
2021/01/03 09:04:56;;;;;;;18.13;10.50;;;2.20;99.90;;;;;;5068357;28;20052;-73
2021/01/03 09:07:23;;;;;;;19.03;9.57;;;2.30;99.90;;;;;;5068954;28;20053;-73
2021/01/03 09:09:50;;;;;;;18.33;9.43;;;2.30;99.90;;;;;;5066806;28;20045;-72
2021/01/03 09:12:35;;;;;;;19.23;9.80;;;2.30;99.90;;;;;;5067905;28;20053;-73
2021/01/03 09:15:05;;;;;;;16.60;9.67;;;2.40;99.90;;;;;;5069296;28;20052;-72
2021/01/03 09:17:37;;;;;;;16.93;9.47;;;2.40;99.90;;;;;;5068411;28;20056;-73
2021/01/03 09:20:18;;;;;;;16.33;9.33;;;2.40;99.90;;;;;;5069339;28;20493;-73
2021/01/03 09:22:49;;;;;;;20.17;10.70;;;2.40;99.90;;;;;;5068528;28;20048;-73
2021/01/03 09:25:20;;;;;;;20.63;10.60;;;2.30;99.90;;;;;;5080463;28;20052;-72
2021/01/03 09:27:53;;;;;;;18.40;10.53;;;2.40;99.90;;;;;;5089465;28;20484;-74
2021/01/03 09:30:28;;;;;;;21.37;10.77;;;2.40;99.90;;;;;;5047995;28;20083;-73
2021/01/03 09:33:07;;;;;;;22.13;11.30;;;2.30;99.90;;;;;;5048866;28;20053;-72
2021/01/03 09:35:48;;;;;;;19.50;11.17;;;2.30;99.90;;;;;;5048327;28;20425;-72
2021/01/03 09:38:43;;;;;;;20.03;10.63;;;2.30;99.90;;;;;;5049148;28;20045;-73
2021/01/03 09:41:28;;;;;;;22.10;11.37;;;2.40;99.90;;;;;;5047742;28;20060;-73
2021/01/03 09:44:09;;;;;;;19.93;11.33;;;2.40;99.90;;;;;;5049465;28;20132;-74
2021/01/03 09:46:40;;;;;;;21.27;11.33;;;2.30;99.90;;;;;;5049083;28;20449;-73
2021/01/03 09:49:22;;;;;;;21.00;11.93;;;2.30;99.90;;;;;;5072887;28;20052;-71
2021/01/03 09:52:01;;;;;;;19.20;10.80;;;2.40;99.90;;;;;;5072170;28;20466;-71
2021/01/03 09:54:38;;;;;;;23.20;12.20;;;2.40;99.90;;;;;;5058498;28;20047;-70
2021/01/03 09:57:04;;;;;;;25.13;11.98;;;2.40;99.90;;;;;;5080733;28;20048;-70
2021/01/03 09:59:32;;;;;;;21.83;11.80;;;2.40;99.90;;;;;;5083673;28;20052;-70
2021/01/03 10:02:16;;;;;;;21.30;11.70;;;2.50;99.90;;;;;;5072157;28;20128;-70
2021/01/03 10:04:44;;;;;;;20.83;11.07;;;2.40;99.90;;;;;;5082408;28;20037;-71
2021/01/03 10:07:12;;;;;;;21.97;12.10;;;2.50;99.90;;;;;;5080555;28;20050;-70
2021/01/03 10:09:40;;;;;;;21.63;11.30;;;2.60;99.90;;;;;;5075433;28;20703;-70
2021/01/03 10:12:24;;;;;;;23.33;12.77;;;2.60;99.90;;;;;;5088900;28;20052;-70
2021/01/03 10:15:09;;;;;;;23.00;11.97;;;2.50;99.90;;;;;;5080731;28;20048;-72
2021/01/03 10:17:36;;;;;;;20.53;11.63;;;2.60;99.90;;;;;;5079285;28;20105;-71
2021/01/03 10:20:15;;;;;;;22.27;12.63;;;2.60;99.90;;;;;;5089231;28;20561;-71
2021/01/03 10:22:44;;;;;;;20.10;12.03;;;2.60;99.90;;;;;;5078232;28;20080;-71
2021/01/03 10:25:18;;;;;;;23.47;12.63;;;2.50;99.90;;;;;;5082525;28;20181;-71
2021/01/03 10:28:03;;;;;;;29.10;14.73;;;2.60;99.90;;;;;;5087059;28;20063;-71
2021/01/03 10:30:31;;;;;;;24.57;12.37;;;2.60;99.90;;;;;;5062036;28;20102;-70
2021/01/03 10:32:57;;;;;;;22.53;11.97;;;2.70;99.90;;;;;;5083388;28;20040;-70
2021/01/03 10:35:24;;;;;;;23.50;12.33;;;2.70;99.90;;;;;;5085074;28;20051;-76
2021/01/03 10:37:51;;;;;;;23.03;12.27;;;2.80;99.90;;;;;;5075473;28;20436;-74
2021/01/03 10:40:20;;;;;;;22.77;11.93;;;2.70;99.90;;;;;;5072167;28;20048;-74
2021/01/03 10:42:48;;;;;;;23.70;12.93;;;2.60;99.90;;;;;;5071112;28;20053;-73
2021/01/03 10:45:15;;;;;;;24.93;12.93;;;2.70;99.90;;;;;;5073334;28;20080;-73
2021/01/03 10:47:43;;;;;;;26.30;13.67;;;2.70;99.90;;;;;;5072840;28;20063;-75
2021/01/03 10:50:12;;;;;;;23.03;12.60;;;2.70;99.90;;;;;;5088993;28;20052;-73
2021/01/03 10:52:39;;;;;;;21.77;11.93;;;2.70;99.90;;;;;;5079661;28;20059;-73
2021/01/03 10:55:08;;;;;;;26.10;12.47;;;2.70;99.90;;;;;;5092799;28;20060;-73
2021/01/03 10:57:34;;;;;;;24.70;12.57;;;2.70;99.90;;;;;;5093251;28;20060;-73
2021/01/03 11:00:01;;;;;;;22.00;12.27;;;2.70;99.90;;;;;;5077885;28;20075;-74
2021/01/03 11:02:28;;;;;;;22.40;12.73;;;2.60;99.90;;;;;;5072287;28;20493;-73
2021/01/03 11:04:56;;;;;;;23.57;12.10;;;2.60;99.90;;;;;;5072552;28;20179;-75
2021/01/03 11:07:22;;;;;;;21.43;11.63;;;2.80;99.90;;;;;;5071409;28;20056;-73
2021/01/03 11:09:49;;;;;;;22.33;12.67;;;2.60;99.90;;;;;;5072591;28;20048;-74
2021/01/03 11:12:18;;;;;;;22.03;12.13;;;2.60;99.90;;;;;;5072213;28;20093;-73
2021/01/03 11:14:45;;;;;;;21.43;12.60;;;2.60;99.90;;;;;;5072388;28;20432;-73
2021/01/03 11:17:15;;;;;;;22.33;12.47;;;2.60;99.90;;;;;;5072253;28;20077;-73
2021/01/03 11:19:42;;;;;;;25.20;12.53;;;2.60;99.90;;;;;;5071352;28;20495;-73
2021/01/03 11:22:12;;;;;;;22.20;11.57;;;2.70;99.90;;;;;;5072123;28;20059;-73
2021/01/03 11:24:39;;;;;;;24.27;13.03;;;2.60;99.90;;;;;;5071018;28;20044;-73
2021/01/03 11:27:09;;;;;;;19.77;11.57;;;2.60;99.90;;;;;;5072268;28;20125;-73
2021/01/03 11:29:36;;;;;;;21.53;11.70;;;2.60;99.90;;;;;;5057099;28;20057;-73
2021/01/03 11:32:06;;;;;;;22.73;12.20;;;2.60;99.90;;;;;;5051250;28;20087;-73
2021/01/03 11:34:33;;;;;;;19.73;11.60;;;2.60;99.90;;;;;;5052129;28;20051;-73
2021/01/03 11:37:02;;;;;;;18.53;10.43;;;2.70;99.90;;;;;;5050599;28;20467;-73
2021/01/03 11:39:31;;;;;;;18.83;10.33;;;2.60;99.90;;;;;;5052207;28;20626;-73
2021/01/03 11:41:59;;;;;;;17.33;9.80;;;2.50;99.90;;;;;;5050764;28;20163;-75
2021/01/03 11:44:27;;;;;;;17.53;9.77;;;2.50;99.90;;;;;;5056760;28;20136;-74
2021/01/03 11:46:58;;;;;;;23.97;10.13;;;2.50;99.90;;;;;;5058763;28;21343;-74
2021/01/03 11:49:25;;;;;;;16.83;9.70;;;2.50;99.90;;;;;;5064320;28;20052;-74
2021/01/03 11:51:52;;;;;;;17.83;10.00;;;2.50;99.90;;;;;;5087258;28;20497;-76
2021/01/03 11:54:20;;;;;;;19.33;10.40;;;2.50;99.90;;;;;;5088083;28;20051;-75
2021/01/03 11:56:47;;;;;;;18.17;10.70;;;2.50;99.90;;;;;;5079835;28;20107;-75
2021/01/03 11:59:16;;;;;;;18.73;9.80;;;2.50;99.90;;;;;;5081246;28;20470;-78
2021/01/03 12:01:43;;;;;;;19.80;9.57;;;2.50;99.90;;;;;;5096834;28;20058;-73
2021/01/03 12:04:09;;;;;;;18.83;10.70;;;2.50;99.90;;;;;;5086173;28;20052;-75
2021/01/03 12:06:36;;;;;;;20.50;11.00;;;2.60;99.90;;;;;;5087911;28;20116;-72
2021/01/03 12:09:04;;;;;;;18.90;10.67;;;2.60;99.90;;;;;;5078222;28;20051;-76
2021/01/03 12:11:31;;;;;;;18.63;9.73;;;2.50;99.90;;;;;;5093633;28;20080;-75
2021/01/03 12:14:00;;;;;;;19.40;10.53;;;2.60;99.90;;;;;;5092924;28;20135;-75
2021/01/03 12:16:29;;;;;;;18.50;10.50;;;2.60;99.90;;;;;;5083253;28;20053;-79
2021/01/03 12:18:56;;;;;;;21.47;10.00;;;2.60;99.90;;;;;;5088532;28;20131;-76
2021/01/03 12:21:25;;;;;;;17.83;10.30;;;2.80;99.90;;;;;;5091941;28;20496;-77
2021/01/03 12:23:52;;;;;;;20.40;10.37;;;2.60;99.90;;;;;;5089587;28;20059;-74
2021/01/03 12:26:19;;;;;;;17.37;9.53;;;2.60;99.90;;;;;;5089972;28;20420;-73
2021/01/03 12:28:46;;;;;;;19.33;9.83;;;2.70;99.90;;;;;;5074446;28;20052;-73
2021/01/03 12:31:15;;;;;;;18.00;10.37;;;2.70;99.90;;;;;;5069145;28;20072;-73
2021/01/03 12:33:42;;;;;;;15.77;9.13;;;2.70;99.90;;;;;;5076173;28;20048;-74
2021/01/03 12:36:10;;;;;;;16.30;10.13;;;2.60;99.90;;;;;;5089268;28;20385;-75
2021/01/03 12:38:36;;;;;;;18.97;9.63;;;2.70;99.90;;;;;;5090519;28;20052;-75
2021/01/03 12:41:04;;;;;;;15.17;8.70;;;2.60;99.90;;;;;;5087865;28;20104;-76
2021/01/03 12:43:30;;;;;;;14.20;8.47;;;2.70;99.90;;;;;;5069836;28;20127;-76
2021/01/03 12:45:57;;;;;;;18.77;10.03;;;2.70;99.90;;;;;;5078446;28;20048;-76
2021/01/03 12:48:25;;;;;;;18.73;9.53;;;2.60;99.90;;;;;;5089477;28;20492;-74
2021/01/03 12:50:52;;;;;;;15.53;8.60;;;2.70;99.90;;;;;;5089824;28;20438;-75
2021/01/03 12:53:21;;;;;;;15.90;8.70;;;2.70;99.90;;;;;;5069444;28;20532;-74
2021/01/03 12:55:58;;;;;;;16.50;8.87;;;2.60;99.90;;;;;;5069478;28;20098;-70
2021/01/03 12:58:24;;;;;;;;;;;2.70;99.90;;;;;;5064875;28;20204;-70